Terminal Aerodrome Forecast
Issued by NWS

Current Version | Previous Version | Graphics & Text | Print | Product List | Glossary On
Versions: 1 2 3 4 5 6 7 8 9 10 11 12 13 14 15 16 17 18 19
814
FTUS41 KPBZ 122334
TAFHLG
TAF
KHLG 122334Z 1300/1324 30015G25KT P6SM OVC035
     FM132100 26009KT 2SM -SN BKN020
     FM132300 24006KT 1/2SM SN BKN008=

USA.gov is the U.S. government's official web portal to all federal, state and local government web resources and services.